X  Lukk Metar værinformasjon om luftfart     EHKD De Kooy Airport
Temperatur
43°F Temperatur
36°F Duggpunkt
76% Luftfuktighet



Vind
23 MPT
37 KM/T
10 M/S
20 KNP



240°
VSV
Nåværende forhold

Delvis overskyet Delvis overskyet
Trykk 984.76 (hPa) - 29.08 (inHg)
Sikt 6 (mil) - 9.7 (km)
Flyplass
Flyplass-kode EHKD

Plassering: De Kooy Airport
Avstand: 34 (mi)

Metar:
EHKD 230355Z AUTO 24020KT 9999 FEW022 06/02 Q0985 BLU

Tid: 23-02-2024 04:55 CET